Hlavní strana
METAR-TAF:

METAR-TAF

Letiště :

Jönköping, Švédsko

zeměpisná šířka: 57-46N, zeměpisná délka: 014-05E, výška: 226 m

Aktuální stav počasí

Zpráva byla vytvořena před 26 minutami, v 21:50 UTC
Jihozápadní vítr 7 kt
Teplota 0°C
Vlhkost vzduchu 74%
Tlak 1014 hPa
Viditelnost 10 km a více
Žádná oblačnost pod 1500 m, nevyskytují se cumulonimby.

METAR: ESGJ 252150Z 23007KT CAVOK M00/M04 Q1014 R19//9//70

Čas: 23:16 (22:16 UTC)

Předpověď počasí

Zpráva byla vytvořena před 1 hodinou a 46 minutami, v 20:30 UTC
Předpověď platná od 25 v 21 UTC do 26 v 02 UTC
Západojihozápadní vítr 4 kt
Viditelnost 10 km a více
Žádná oblačnost pod 1500 m, nevyskytují se cumulonimby.

TAF: ESGJ 252030Z 2521/2602 25004KT CAVOK

Stav a předpovědi počasí z více než 4 000 letišť (zprávy METAR a TAF).

Červené a žluté tečky na mapě představují dostupné meteorologické stanice.

Když kurzor umístíte na tečku, zobrazí se název stanice.

Pak kliknutím zobrazíte stav a předpověď počasí.

Chcete-li změnit mapu, kliknutím na zelené tlačítko se znaménkem +mapu přiblížíte, kliknutím na zelené tlačítko se znaménkem – mapu oddálíte a kliknutím na zelené šipky přejdete na sousední mapy.


METAR-TAF: